sensor_id;sensor_type;location;lat;lon;timestamp;P1;durP1;ratioP1;P2;durP2;ratioP2
30149;SDS011;16962;48.646;9.026;2023-04-03T00:00:15;9.93;;;5.05;;
30149;SDS011;16962;48.646;9.026;2023-04-03T00:03:02;6.00;;;4.78;;
30149;SDS011;16962;48.646;9.026;2023-04-03T00:05:50;8.35;;;4.85;;
30149;SDS011;16962;48.646;9.026;2023-04-03T00:08:37;8.02;;;4.70;;
30149;SDS011;16962;48.646;9.026;2023-04-03T00:11:25;8.50;;;4.93;;
30149;SDS011;16962;48.646;9.026;2023-04-03T00:14:13;8.98;;;5.25;;
30149;SDS011;16962;48.646;9.026;2023-04-03T00:17:04;7.43;;;4.82;;
30149;SDS011;16962;48.646;9.026;2023-04-03T00:19:52;9.02;;;5.50;;
30149;SDS011;16962;48.646;9.026;2023-04-03T00:22:39;7.97;;;5.00;;
30149;SDS011;16962;48.646;9.026;2023-04-03T00:25:26;8.82;;;5.22;;
30149;SDS011;16962;48.646;9.026;2023-04-03T00:28:13;10.57;;;5.03;;
30149;SDS011;16962;48.646;9.026;2023-04-03T00:31:01;8.00;;;5.60;;
30149;SDS011;16962;48.646;9.026;2023-04-03T00:33:57;7.80;;;5.45;;
30149;SDS011;16962;48.646;9.026;2023-04-03T00:36:47;7.20;;;5.15;;
30149;SDS011;16962;48.646;9.026;2023-04-03T00:39:38;12.38;;;5.40;;
30149;SDS011;16962;48.646;9.026;2023-04-03T00:42:25;6.70;;;5.22;;
30149;SDS011;16962;48.646;9.026;2023-04-03T00:48:39;8.05;;;5.18;;
30149;SDS011;16962;48.646;9.026;2023-04-03T00:51:29;9.25;;;5.68;;
30149;SDS011;16962;48.646;9.026;2023-04-03T00:54:16;10.65;;;5.43;;
30149;SDS011;16962;48.646;9.026;2023-04-03T00:57:04;7.60;;;5.35;;
30149;SDS011;16962;48.646;9.026;2023-04-03T00:59:55;9.25;;;5.30;;
30149;SDS011;16962;48.646;9.026;2023-04-03T01:02:46;7.13;;;5.18;;
30149;SDS011;16962;48.646;9.026;2023-04-03T01:05:36;9.02;;;5.38;;
30149;SDS011;16962;48.646;9.026;2023-04-03T01:08:24;5.57;;;4.80;;
30149;SDS011;16962;48.646;9.026;2023-04-03T01:11:12;12.75;;;5.70;;
30149;SDS011;16962;48.646;9.026;2023-04-03T01:13:59;7.75;;;5.32;;
30149;SDS011;16962;48.646;9.026;2023-04-03T01:16:53;8.13;;;5.40;;
30149;SDS011;16962;48.646;9.026;2023-04-03T01:19:41;4.90;;;4.07;;
30149;SDS011;16962;48.646;9.026;2023-04-03T01:25:29;7.00;;;4.90;;
30149;SDS011;16962;48.646;9.026;2023-04-03T01:28:24;8.38;;;4.70;;
30149;SDS011;16962;48.646;9.026;2023-04-03T01:34:26;10.68;;;5.00;;
30149;SDS011;16962;48.646;9.026;2023-04-03T01:37:14;9.10;;;5.40;;
30149;SDS011;16962;48.646;9.026;2023-04-03T01:40:02;11.15;;;5.28;;
30149;SDS011;16962;48.646;9.026;2023-04-03T01:42:50;9.93;;;5.55;;
30149;SDS011;16962;48.646;9.026;2023-04-03T01:45:37;7.50;;;5.03;;
30149;SDS011;16962;48.646;9.026;2023-04-03T01:48:24;6.80;;;5.13;;
30149;SDS011;16962;48.646;9.026;2023-04-03T01:51:14;10.75;;;5.85;;
30149;SDS011;16962;48.646;9.026;2023-04-03T01:54:01;11.57;;;5.55;;
30149;SDS011;16962;48.646;9.026;2023-04-03T01:56:49;10.90;;;5.57;;
30149;SDS011;16962;48.646;9.026;2023-04-03T01:59:37;8.38;;;5.40;;
30149;SDS011;16962;48.646;9.026;2023-04-03T02:02:24;6.28;;;5.50;;
30149;SDS011;16962;48.646;9.026;2023-04-03T02:05:12;9.43;;;5.28;;
30149;SDS011;16962;48.646;9.026;2023-04-03T02:07:59;7.95;;;5.25;;
30149;SDS011;16962;48.646;9.026;2023-04-03T02:10:47;8.65;;;4.85;;
30149;SDS011;16962;48.646;9.026;2023-04-03T02:13:35;9.60;;;5.38;;
30149;SDS011;16962;48.646;9.026;2023-04-03T02:16:22;7.57;;;5.45;;
30149;SDS011;16962;48.646;9.026;2023-04-03T02:19:09;7.63;;;5.68;;
30149;SDS011;16962;48.646;9.026;2023-04-03T02:21:59;6.90;;;5.30;;
30149;SDS011;16962;48.646;9.026;2023-04-03T02:24:46;8.38;;;5.68;;
30149;SDS011;16962;48.646;9.026;2023-04-03T02:27:34;10.75;;;6.28;;
30149;SDS011;16962;48.646;9.026;2023-04-03T02:30:22;8.75;;;5.28;;
30149;SDS011;16962;48.646;9.026;2023-04-03T02:33:11;6.13;;;5.03;;
30149;SDS011;16962;48.646;9.026;2023-04-03T02:36:06;7.65;;;5.32;;
30149;SDS011;16962;48.646;9.026;2023-04-03T02:38:54;7.90;;;5.38;;
30149;SDS011;16962;48.646;9.026;2023-04-03T02:41:41;9.30;;;5.95;;
30149;SDS011;16962;48.646;9.026;2023-04-03T02:44:28;7.70;;;4.93;;
30149;SDS011;16962;48.646;9.026;2023-04-03T02:47:16;8.38;;;5.43;;
30149;SDS011;16962;48.646;9.026;2023-04-03T02:50:03;7.38;;;5.32;;
30149;SDS011;16962;48.646;9.026;2023-04-03T02:52:51;9.52;;;5.20;;
30149;SDS011;16962;48.646;9.026;2023-04-03T02:55:41;9.15;;;5.68;;
30149;SDS011;16962;48.646;9.026;2023-04-03T02:58:31;8.90;;;5.25;;
30149;SDS011;16962;48.646;9.026;2023-04-03T03:01:19;10.32;;;5.45;;
30149;SDS011;16962;48.646;9.026;2023-04-03T03:04:07;9.60;;;4.88;;
30149;SDS011;16962;48.646;9.026;2023-04-03T03:06:54;9.00;;;5.45;;
30149;SDS011;16962;48.646;9.026;2023-04-03T03:09:41;8.23;;;5.40;;
30149;SDS011;16962;48.646;9.026;2023-04-03T03:12:30;8.35;;;5.55;;
30149;SDS011;16962;48.646;9.026;2023-04-03T03:15:19;7.25;;;5.20;;
30149;SDS011;16962;48.646;9.026;2023-04-03T03:18:06;5.57;;;4.57;;
30149;SDS011;16962;48.646;9.026;2023-04-03T03:20:57;9.45;;;4.80;;
30149;SDS011;16962;48.646;9.026;2023-04-03T03:23:58;8.18;;;4.82;;
30149;SDS011;16962;48.646;9.026;2023-04-03T03:26:46;8.10;;;4.88;;
30149;SDS011;16962;48.646;9.026;2023-04-03T03:29:33;9.32;;;5.38;;
30149;SDS011;16962;48.646;9.026;2023-04-03T03:32:20;7.15;;;4.88;;
30149;SDS011;16962;48.646;9.026;2023-04-03T03:35:08;6.95;;;5.05;;
30149;SDS011;16962;48.646;9.026;2023-04-03T03:37:55;7.82;;;4.50;;
30149;SDS011;16962;48.646;9.026;2023-04-03T03:40:42;7.90;;;4.88;;
30149;SDS011;16962;48.646;9.026;2023-04-03T03:43:31;11.73;;;4.88;;
30149;SDS011;16962;48.646;9.026;2023-04-03T03:46:21;8.40;;;5.35;;
30149;SDS011;16962;48.646;9.026;2023-04-03T03:49:08;6.85;;;4.70;;
30149;SDS011;16962;48.646;9.026;2023-04-03T03:51:56;6.97;;;4.50;;
30149;SDS011;16962;48.646;9.026;2023-04-03T03:54:43;11.32;;;4.97;;
30149;SDS011;16962;48.646;9.026;2023-04-03T03:57:32;7.50;;;4.65;;
30149;SDS011;16962;48.646;9.026;2023-04-03T04:00:19;7.25;;;5.05;;
30149;SDS011;16962;48.646;9.026;2023-04-03T04:03:07;8.43;;;4.97;;
30149;SDS011;16962;48.646;9.026;2023-04-03T04:05:54;6.22;;;4.55;;
30149;SDS011;16962;48.646;9.026;2023-04-03T04:08:41;6.22;;;4.68;;
30149;SDS011;16962;48.646;9.026;2023-04-03T04:11:29;8.25;;;4.32;;
30149;SDS011;16962;48.646;9.026;2023-04-03T04:14:26;6.55;;;4.72;;
30149;SDS011;16962;48.646;9.026;2023-04-03T04:17:13;5.57;;;4.35;;
30149;SDS011;16962;48.646;9.026;2023-04-03T04:20:02;7.93;;;4.85;;
30149;SDS011;16962;48.646;9.026;2023-04-03T04:22:51;7.85;;;5.25;;
30149;SDS011;16962;48.646;9.026;2023-04-03T04:25:39;7.63;;;4.30;;
30149;SDS011;16962;48.646;9.026;2023-04-03T04:28:26;8.70;;;4.93;;
30149;SDS011;16962;48.646;9.026;2023-04-03T04:31:14;10.40;;;5.45;;
30149;SDS011;16962;48.646;9.026;2023-04-03T04:34:03;10.95;;;5.50;;
30149;SDS011;16962;48.646;9.026;2023-04-03T04:36:51;7.45;;;4.15;;
30149;SDS011;16962;48.646;9.026;2023-04-03T04:39:38;10.07;;;5.70;;
30149;SDS011;16962;48.646;9.026;2023-04-03T04:42:30;6.97;;;5.18;;
30149;SDS011;16962;48.646;9.026;2023-04-03T04:45:18;9.15;;;4.45;;
30149;SDS011;16962;48.646;9.026;2023-04-03T04:48:05;9.00;;;4.78;;
30149;SDS011;16962;48.646;9.026;2023-04-03T04:50:52;8.02;;;4.80;;
30149;SDS011;16962;48.646;9.026;2023-04-03T04:53:39;8.30;;;5.15;;
30149;SDS011;16962;48.646;9.026;2023-04-03T04:56:27;8.75;;;5.22;;
30149;SDS011;16962;48.646;9.026;2023-04-03T04:59:18;7.38;;;4.80;;
30149;SDS011;16962;48.646;9.026;2023-04-03T05:02:07;5.78;;;4.50;;
30149;SDS011;16962;48.646;9.026;2023-04-03T05:04:57;8.77;;;4.63;;
30149;SDS011;16962;48.646;9.026;2023-04-03T05:07:44;6.75;;;4.50;;
30149;SDS011;16962;48.646;9.026;2023-04-03T05:10:36;7.13;;;5.03;;
30149;SDS011;16962;48.646;9.026;2023-04-03T05:13:23;7.03;;;4.45;;
30149;SDS011;16962;48.646;9.026;2023-04-03T05:16:10;6.43;;;4.53;;
30149;SDS011;16962;48.646;9.026;2023-04-03T05:18:58;8.38;;;4.53;;
30149;SDS011;16962;48.646;9.026;2023-04-03T05:21:47;5.75;;;4.18;;
30149;SDS011;16962;48.646;9.026;2023-04-03T05:24:35;8.45;;;4.72;;
30149;SDS011;16962;48.646;9.026;2023-04-03T05:27:25;8.77;;;4.50;;
30149;SDS011;16962;48.646;9.026;2023-04-03T05:30:14;5.60;;;3.78;;
30149;SDS011;16962;48.646;9.026;2023-04-03T05:33:03;8.98;;;4.18;;
30149;SDS011;16962;48.646;9.026;2023-04-03T05:35:50;5.28;;;4.00;;
30149;SDS011;16962;48.646;9.026;2023-04-03T05:38:38;6.65;;;4.03;;
30149;SDS011;16962;48.646;9.026;2023-04-03T05:41:26;4.70;;;3.58;;
30149;SDS011;16962;48.646;9.026;2023-04-03T05:44:13;5.78;;;3.47;;
30149;SDS011;16962;48.646;9.026;2023-04-03T05:47:03;6.05;;;3.75;;
30149;SDS011;16962;48.646;9.026;2023-04-03T05:49:51;6.82;;;3.83;;
30149;SDS011;16962;48.646;9.026;2023-04-03T05:52:40;7.72;;;3.97;;
30149;SDS011;16962;48.646;9.026;2023-04-03T05:55:33;3.88;;;3.30;;
30149;SDS011;16962;48.646;9.026;2023-04-03T05:58:29;5.95;;;3.08;;
30149;SDS011;16962;48.646;9.026;2023-04-03T06:01:27;3.88;;;3.10;;
30149;SDS011;16962;48.646;9.026;2023-04-03T07:06:56;5.07;;;3.65;;
30149;SDS011;16962;48.646;9.026;2023-04-03T07:22:15;3.78;;;3.03;;
30149;SDS011;16962;48.646;9.026;2023-04-03T07:25:08;4.20;;;3.20;;
30149;SDS011;16962;48.646;9.026;2023-04-03T07:31:42;4.43;;;3.33;;
30149;SDS011;16962;48.646;9.026;2023-04-03T07:46:22;4.22;;;3.20;;
30149;SDS011;16962;48.646;9.026;2023-04-03T07:54:13;6.28;;;3.22;;
30149;SDS011;16962;48.646;9.026;2023-04-03T07:57:21;4.43;;;2.92;;
30149;SDS011;16962;48.646;9.026;2023-04-03T08:00:24;4.38;;;3.08;;
30149;SDS011;16962;48.646;9.026;2023-04-03T08:03:18;5.20;;;2.80;;
30149;SDS011;16962;48.646;9.026;2023-04-03T08:06:17;5.18;;;3.05;;
30149;SDS011;16962;48.646;9.026;2023-04-03T08:09:46;4.00;;;2.95;;
30149;SDS011;16962;48.646;9.026;2023-04-03T08:13:36;6.65;;;2.90;;
30149;SDS011;16962;48.646;9.026;2023-04-03T08:16:59;6.60;;;3.50;;
30149;SDS011;16962;48.646;9.026;2023-04-03T08:19:55;7.05;;;3.33;;
30149;SDS011;16962;48.646;9.026;2023-04-03T08:23:08;8.85;;;3.20;;
30149;SDS011;16962;48.646;9.026;2023-04-03T08:38:15;5.55;;;3.67;;
30149;SDS011;16962;48.646;9.026;2023-04-03T08:48:34;6.18;;;3.60;;
30149;SDS011;16962;48.646;9.026;2023-04-03T08:51:57;11.43;;;3.25;;
30149;SDS011;16962;48.646;9.026;2023-04-03T08:55:29;8.55;;;3.33;;
30149;SDS011;16962;48.646;9.026;2023-04-03T08:58:26;6.03;;;2.85;;
30149;SDS011;16962;48.646;9.026;2023-04-03T09:01:40;6.38;;;3.33;;
30149;SDS011;16962;48.646;9.026;2023-04-03T09:05:05;6.35;;;3.35;;
30149;SDS011;16962;48.646;9.026;2023-04-03T09:08:07;4.47;;;3.00;;
30149;SDS011;16962;48.646;9.026;2023-04-03T09:24:07;5.50;;;3.30;;
30149;SDS011;16962;48.646;9.026;2023-04-03T09:27:11;4.35;;;3.03;;
30149;SDS011;16962;48.646;9.026;2023-04-03T09:30:15;5.70;;;2.80;;
30149;SDS011;16962;48.646;9.026;2023-04-03T09:33:10;9.90;;;3.30;;
30149;SDS011;16962;48.646;9.026;2023-04-03T09:36:07;5.30;;;3.42;;
30149;SDS011;16962;48.646;9.026;2023-04-03T09:39:04;5.03;;;2.72;;
30149;SDS011;16962;48.646;9.026;2023-04-03T09:45:46;3.97;;;3.05;;
30149;SDS011;16962;48.646;9.026;2023-04-03T09:52:35;4.45;;;2.80;;
30149;SDS011;16962;48.646;9.026;2023-04-03T10:00:38;7.30;;;3.10;;
30149;SDS011;16962;48.646;9.026;2023-04-03T10:15:49;4.57;;;3.17;;
30149;SDS011;16962;48.646;9.026;2023-04-03T10:57:43;5.25;;;2.88;;
30149;SDS011;16962;48.646;9.026;2023-04-03T11:04:07;12.90;;;5.57;;
30149;SDS011;16962;48.646;9.026;2023-04-03T11:07:37;3.67;;;2.80;;
30149;SDS011;16962;48.646;9.026;2023-04-03T11:11:05;8.85;;;2.50;;
30149;SDS011;16962;48.646;9.026;2023-04-03T11:17:41;3.60;;;2.22;;
30149;SDS011;16962;48.646;9.026;2023-04-03T11:28:35;4.63;;;2.63;;
30149;SDS011;16962;48.646;9.026;2023-04-03T11:37:48;8.20;;;2.63;;
30149;SDS011;16962;48.646;9.026;2023-04-03T11:44:35;4.63;;;2.60;;
30149;SDS011;16962;48.646;9.026;2023-04-03T12:25:47;5.28;;;2.65;;
30149;SDS011;16962;48.646;9.026;2023-04-03T12:28:47;6.03;;;2.80;;
30149;SDS011;16962;48.646;9.026;2023-04-03T12:46:36;7.60;;;2.85;;
30149;SDS011;16962;48.646;9.026;2023-04-03T12:49:52;5.65;;;2.45;;
30149;SDS011;16962;48.646;9.026;2023-04-03T12:53:02;5.38;;;2.80;;
30149;SDS011;16962;48.646;9.026;2023-04-03T13:02:32;5.68;;;2.38;;
30149;SDS011;16962;48.646;9.026;2023-04-03T13:05:43;4.10;;;2.90;;
30149;SDS011;16962;48.646;9.026;2023-04-03T13:09:49;5.83;;;2.33;;
30149;SDS011;16962;48.646;9.026;2023-04-03T13:13:06;8.38;;;2.58;;
30149;SDS011;16962;48.646;9.026;2023-04-03T13:16:15;5.10;;;2.30;;
30149;SDS011;16962;48.646;9.026;2023-04-03T13:23:48;3.22;;;2.25;;
30149;SDS011;16962;48.646;9.026;2023-04-03T13:31:29;9.57;;;4.18;;
30149;SDS011;16962;48.646;9.026;2023-04-03T13:55:29;3.53;;;2.10;;
30149;SDS011;16962;48.646;9.026;2023-04-03T14:02:30;4.13;;;2.67;;
30149;SDS011;16962;48.646;9.026;2023-04-03T14:06:30;5.60;;;2.38;;
30149;SDS011;16962;48.646;9.026;2023-04-03T14:10:16;4.32;;;2.65;;
30149;SDS011;16962;48.646;9.026;2023-04-03T14:13:24;4.88;;;2.35;;
30149;SDS011;16962;48.646;9.026;2023-04-03T14:41:06;3.88;;;2.17;;
30149;SDS011;16962;48.646;9.026;2023-04-03T14:44:33;6.55;;;2.67;;
30149;SDS011;16962;48.646;9.026;2023-04-03T14:47:37;4.28;;;2.75;;
30149;SDS011;16962;48.646;9.026;2023-04-03T14:51:21;8.70;;;4.65;;
30149;SDS011;16962;48.646;9.026;2023-04-03T14:54:58;3.45;;;2.75;;
30149;SDS011;16962;48.646;9.026;2023-04-03T14:57:57;3.58;;;2.63;;
30149;SDS011;16962;48.646;9.026;2023-04-03T15:00:47;5.35;;;2.83;;
30149;SDS011;16962;48.646;9.026;2023-04-03T15:03:34;4.00;;;2.47;;
30149;SDS011;16962;48.646;9.026;2023-04-03T15:10:34;4.55;;;2.60;;
30149;SDS011;16962;48.646;9.026;2023-04-03T15:13:30;3.60;;;2.08;;
30149;SDS011;16962;48.646;9.026;2023-04-03T15:16:21;3.70;;;2.38;;
30149;SDS011;16962;48.646;9.026;2023-04-03T15:19:21;5.53;;;2.58;;
30149;SDS011;16962;48.646;9.026;2023-04-03T15:22:17;3.97;;;2.30;;
30149;SDS011;16962;48.646;9.026;2023-04-03T15:25:08;6.15;;;2.58;;
30149;SDS011;16962;48.646;9.026;2023-04-03T15:27:59;5.20;;;2.20;;
30149;SDS011;16962;48.646;9.026;2023-04-03T15:30:47;3.95;;;2.38;;
30149;SDS011;16962;48.646;9.026;2023-04-03T15:33:35;6.55;;;3.67;;
30149;SDS011;16962;48.646;9.026;2023-04-03T15:36:26;8.00;;;2.75;;
30149;SDS011;16962;48.646;9.026;2023-04-03T15:39:24;3.28;;;2.47;;
30149;SDS011;16962;48.646;9.026;2023-04-03T15:42:17;4.90;;;2.50;;
30149;SDS011;16962;48.646;9.026;2023-04-03T15:45:04;4.38;;;2.45;;
30149;SDS011;16962;48.646;9.026;2023-04-03T15:47:55;3.83;;;2.70;;
30149;SDS011;16962;48.646;9.026;2023-04-03T15:50:44;4.82;;;2.60;;
30149;SDS011;16962;48.646;9.026;2023-04-03T15:53:34;3.25;;;2.75;;
30149;SDS011;16962;48.646;9.026;2023-04-03T15:56:22;6.13;;;2.72;;
30149;SDS011;16962;48.646;9.026;2023-04-03T15:59:10;5.43;;;2.72;;
30149;SDS011;16962;48.646;9.026;2023-04-03T16:01:59;3.63;;;2.35;;
30149;SDS011;16962;48.646;9.026;2023-04-03T16:04:48;6.22;;;2.70;;
30149;SDS011;16962;48.646;9.026;2023-04-03T16:07:39;6.47;;;2.97;;
30149;SDS011;16962;48.646;9.026;2023-04-03T16:10:29;6.78;;;3.42;;
30149;SDS011;16962;48.646;9.026;2023-04-03T16:13:20;6.88;;;2.53;;
30149;SDS011;16962;48.646;9.026;2023-04-03T16:16:07;3.30;;;2.25;;
30149;SDS011;16962;48.646;9.026;2023-04-03T16:18:57;4.18;;;2.60;;
30149;SDS011;16962;48.646;9.026;2023-04-03T16:21:45;3.38;;;2.42;;
30149;SDS011;16962;48.646;9.026;2023-04-03T16:24:35;4.30;;;2.90;;
30149;SDS011;16962;48.646;9.026;2023-04-03T16:27:23;6.68;;;2.65;;
30149;SDS011;16962;48.646;9.026;2023-04-03T16:30:14;6.05;;;2.58;;
30149;SDS011;16962;48.646;9.026;2023-04-03T16:33:02;2.47;;;2.15;;
30149;SDS011;16962;48.646;9.026;2023-04-03T16:35:50;4.68;;;2.50;;
30149;SDS011;16962;48.646;9.026;2023-04-03T16:38:41;4.00;;;3.03;;
30149;SDS011;16962;48.646;9.026;2023-04-03T16:41:32;6.18;;;2.38;;
30149;SDS011;16962;48.646;9.026;2023-04-03T16:44:22;3.40;;;2.40;;
30149;SDS011;16962;48.646;9.026;2023-04-03T16:47:09;4.55;;;2.50;;
30149;SDS011;16962;48.646;9.026;2023-04-03T16:49:57;4.97;;;2.70;;
30149;SDS011;16962;48.646;9.026;2023-04-03T16:52:46;6.60;;;3.05;;
30149;SDS011;16962;48.646;9.026;2023-04-03T16:55:33;8.60;;;3.65;;
30149;SDS011;16962;48.646;9.026;2023-04-03T16:58:22;6.97;;;2.67;;
30149;SDS011;16962;48.646;9.026;2023-04-03T17:01:11;2.83;;;2.33;;
30149;SDS011;16962;48.646;9.026;2023-04-03T17:04:00;4.97;;;3.17;;
30149;SDS011;16962;48.646;9.026;2023-04-03T17:06:48;7.88;;;3.45;;
30149;SDS011;16962;48.646;9.026;2023-04-03T17:09:35;12.48;;;5.00;;
30149;SDS011;16962;48.646;9.026;2023-04-03T17:12:24;10.40;;;4.38;;
30149;SDS011;16962;48.646;9.026;2023-04-03T17:15:14;9.05;;;3.72;;
30149;SDS011;16962;48.646;9.026;2023-04-03T17:18:01;4.88;;;2.85;;
30149;SDS011;16962;48.646;9.026;2023-04-03T17:20:49;7.20;;;3.08;;
30149;SDS011;16962;48.646;9.026;2023-04-03T17:26:56;7.68;;;3.28;;
30149;SDS011;16962;48.646;9.026;2023-04-03T17:29:49;4.45;;;2.40;;
30149;SDS011;16962;48.646;9.026;2023-04-03T17:32:55;4.95;;;2.42;;
30149;SDS011;16962;48.646;9.026;2023-04-03T17:35:43;5.72;;;2.58;;
30149;SDS011;16962;48.646;9.026;2023-04-03T17:44:14;3.30;;;2.45;;
30149;SDS011;16962;48.646;9.026;2023-04-03T17:47:02;4.78;;;2.72;;
30149;SDS011;16962;48.646;9.026;2023-04-03T17:49:52;7.00;;;2.90;;
30149;SDS011;16962;48.646;9.026;2023-04-03T17:52:41;5.55;;;2.78;;
30149;SDS011;16962;48.646;9.026;2023-04-03T17:55:28;7.28;;;2.90;;
30149;SDS011;16962;48.646;9.026;2023-04-03T17:58:16;3.42;;;2.70;;
30149;SDS011;16962;48.646;9.026;2023-04-03T18:01:08;4.07;;;2.50;;
30149;SDS011;16962;48.646;9.026;2023-04-03T18:04:04;4.90;;;3.00;;
30149;SDS011;16962;48.646;9.026;2023-04-03T18:06:52;4.25;;;3.30;;
30149;SDS011;16962;48.646;9.026;2023-04-03T18:09:41;3.67;;;2.75;;
30149;SDS011;16962;48.646;9.026;2023-04-03T18:12:32;8.10;;;2.53;;
30149;SDS011;16962;48.646;9.026;2023-04-03T18:15:25;8.70;;;3.00;;
30149;SDS011;16962;48.646;9.026;2023-04-03T18:18:17;7.57;;;3.00;;
30149;SDS011;16962;48.646;9.026;2023-04-03T18:21:04;6.72;;;3.30;;
30149;SDS011;16962;48.646;9.026;2023-04-03T18:23:54;5.85;;;3.70;;
30149;SDS011;16962;48.646;9.026;2023-04-03T18:26:43;3.20;;;2.45;;
30149;SDS011;16962;48.646;9.026;2023-04-03T18:29:34;7.10;;;3.67;;
30149;SDS011;16962;48.646;9.026;2023-04-03T18:32:24;7.85;;;3.22;;
30149;SDS011;16962;48.646;9.026;2023-04-03T18:35:12;4.38;;;2.83;;
30149;SDS011;16962;48.646;9.026;2023-04-03T18:38:02;4.45;;;2.60;;
30149;SDS011;16962;48.646;9.026;2023-04-03T18:40:50;6.88;;;3.33;;
30149;SDS011;16962;48.646;9.026;2023-04-03T18:43:39;5.75;;;3.70;;
30149;SDS011;16962;48.646;9.026;2023-04-03T18:46:26;6.57;;;3.35;;
30149;SDS011;16962;48.646;9.026;2023-04-03T18:49:14;4.50;;;2.70;;
30149;SDS011;16962;48.646;9.026;2023-04-03T18:52:04;4.97;;;3.08;;
30149;SDS011;16962;48.646;9.026;2023-04-03T18:54:53;6.18;;;2.85;;
30149;SDS011;16962;48.646;9.026;2023-04-03T18:57:44;4.40;;;3.15;;
30149;SDS011;16962;48.646;9.026;2023-04-03T19:00:34;7.75;;;2.83;;
30149;SDS011;16962;48.646;9.026;2023-04-03T19:03:24;6.20;;;3.35;;
30149;SDS011;16962;48.646;9.026;2023-04-03T19:06:14;8.70;;;2.95;;
30149;SDS011;16962;48.646;9.026;2023-04-03T19:09:03;5.82;;;3.35;;
30149;SDS011;16962;48.646;9.026;2023-04-03T19:11:52;5.65;;;3.05;;
30149;SDS011;16962;48.646;9.026;2023-04-03T19:14:40;8.63;;;3.45;;
30149;SDS011;16962;48.646;9.026;2023-04-03T19:17:35;5.82;;;2.92;;
30149;SDS011;16962;48.646;9.026;2023-04-03T19:20:22;6.03;;;3.08;;
30149;SDS011;16962;48.646;9.026;2023-04-03T19:23:10;5.13;;;3.13;;
30149;SDS011;16962;48.646;9.026;2023-04-03T19:26:02;7.40;;;3.08;;
30149;SDS011;16962;48.646;9.026;2023-04-03T19:28:51;5.18;;;2.97;;
30149;SDS011;16962;48.646;9.026;2023-04-03T19:31:39;6.47;;;2.90;;
30149;SDS011;16962;48.646;9.026;2023-04-03T19:34:26;5.20;;;3.00;;
30149;SDS011;16962;48.646;9.026;2023-04-03T19:37:14;7.15;;;3.47;;
30149;SDS011;16962;48.646;9.026;2023-04-03T19:40:03;6.40;;;3.13;;
30149;SDS011;16962;48.646;9.026;2023-04-03T19:42:51;5.30;;;3.10;;
30149;SDS011;16962;48.646;9.026;2023-04-03T19:45:40;6.82;;;3.20;;
30149;SDS011;16962;48.646;9.026;2023-04-03T19:48:30;7.78;;;3.08;;
30149;SDS011;16962;48.646;9.026;2023-04-03T19:51:18;5.00;;;3.30;;
30149;SDS011;16962;48.646;9.026;2023-04-03T19:54:13;4.97;;;2.95;;
30149;SDS011;16962;48.646;9.026;2023-04-03T19:57:01;7.13;;;3.08;;
30149;SDS011;16962;48.646;9.026;2023-04-03T19:59:52;4.10;;;2.88;;
30149;SDS011;16962;48.646;9.026;2023-04-03T20:02:40;6.57;;;3.70;;
30149;SDS011;16962;48.646;9.026;2023-04-03T20:05:30;7.90;;;3.75;;
30149;SDS011;16962;48.646;9.026;2023-04-03T20:08:27;6.78;;;3.88;;
30149;SDS011;16962;48.646;9.026;2023-04-03T20:14:14;5.30;;;3.50;;
30149;SDS011;16962;48.646;9.026;2023-04-03T20:17:03;7.88;;;3.38;;
30149;SDS011;16962;48.646;9.026;2023-04-03T20:19:51;6.38;;;3.42;;
30149;SDS011;16962;48.646;9.026;2023-04-03T20:22:39;6.80;;;3.78;;
30149;SDS011;16962;48.646;9.026;2023-04-03T20:25:27;6.63;;;3.03;;
30149;SDS011;16962;48.646;9.026;2023-04-03T20:28:34;8.20;;;3.53;;
30149;SDS011;16962;48.646;9.026;2023-04-03T20:31:25;6.15;;;3.47;;
30149;SDS011;16962;48.646;9.026;2023-04-03T20:34:20;3.90;;;3.20;;
30149;SDS011;16962;48.646;9.026;2023-04-03T20:37:08;5.63;;;3.42;;
30149;SDS011;16962;48.646;9.026;2023-04-03T20:39:56;6.70;;;2.50;;
30149;SDS011;16962;48.646;9.026;2023-04-03T20:42:46;4.63;;;3.72;;
30149;SDS011;16962;48.646;9.026;2023-04-03T20:45:34;9.63;;;2.92;;
30149;SDS011;16962;48.646;9.026;2023-04-03T20:48:21;9.23;;;3.45;;
30149;SDS011;16962;48.646;9.026;2023-04-03T20:51:09;7.68;;;3.70;;
30149;SDS011;16962;48.646;9.026;2023-04-03T20:54:02;6.65;;;3.40;;
30149;SDS011;16962;48.646;9.026;2023-04-03T20:56:55;6.13;;;3.40;;
30149;SDS011;16962;48.646;9.026;2023-04-03T20:59:50;5.47;;;3.30;;
30149;SDS011;16962;48.646;9.026;2023-04-03T21:02:39;8.45;;;3.17;;
30149;SDS011;16962;48.646;9.026;2023-04-03T21:05:27;5.32;;;2.88;;
30149;SDS011;16962;48.646;9.026;2023-04-03T21:21:43;7.28;;;3.22;;
30149;SDS011;16962;48.646;9.026;2023-04-03T21:24:31;8.02;;;4.00;;
30149;SDS011;16962;48.646;9.026;2023-04-03T21:27:19;8.95;;;3.42;;
30149;SDS011;16962;48.646;9.026;2023-04-03T21:30:06;5.30;;;3.20;;
30149;SDS011;16962;48.646;9.026;2023-04-03T21:32:54;11.65;;;4.28;;
30149;SDS011;16962;48.646;9.026;2023-04-03T21:35:45;6.28;;;3.17;;
30149;SDS011;16962;48.646;9.026;2023-04-03T21:38:34;5.38;;;3.13;;
30149;SDS011;16962;48.646;9.026;2023-04-03T21:41:21;3.38;;;2.67;;
30149;SDS011;16962;48.646;9.026;2023-04-03T21:44:18;5.90;;;3.25;;
30149;SDS011;16962;48.646;9.026;2023-04-03T21:47:07;5.18;;;3.03;;
30149;SDS011;16962;48.646;9.026;2023-04-03T21:49:55;5.50;;;3.47;;
30149;SDS011;16962;48.646;9.026;2023-04-03T21:52:43;6.03;;;3.55;;
30149;SDS011;16962;48.646;9.026;2023-04-03T21:55:30;9.10;;;2.83;;
30149;SDS011;16962;48.646;9.026;2023-04-03T21:58:18;6.30;;;3.10;;
30149;SDS011;16962;48.646;9.026;2023-04-03T22:01:09;4.95;;;2.45;;
30149;SDS011;16962;48.646;9.026;2023-04-03T22:04:06;6.90;;;3.53;;
30149;SDS011;16962;48.646;9.026;2023-04-03T22:06:53;4.40;;;2.65;;
30149;SDS011;16962;48.646;9.026;2023-04-03T22:09:43;7.32;;;2.70;;
30149;SDS011;16962;48.646;9.026;2023-04-03T22:12:36;5.15;;;3.20;;
30149;SDS011;16962;48.646;9.026;2023-04-03T22:15:36;4.40;;;2.70;;
30149;SDS011;16962;48.646;9.026;2023-04-03T22:18:33;6.15;;;3.20;;
30149;SDS011;16962;48.646;9.026;2023-04-03T22:21:21;5.72;;;2.55;;
30149;SDS011;16962;48.646;9.026;2023-04-03T22:24:13;4.68;;;2.47;;
30149;SDS011;16962;48.646;9.026;2023-04-03T22:27:04;3.90;;;2.75;;
30149;SDS011;16962;48.646;9.026;2023-04-03T22:29:52;6.10;;;2.85;;
30149;SDS011;16962;48.646;9.026;2023-04-03T22:32:42;4.85;;;2.78;;
30149;SDS011;16962;48.646;9.026;2023-04-03T22:35:30;8.20;;;2.63;;
30149;SDS011;16962;48.646;9.026;2023-04-03T22:38:18;7.72;;;2.95;;
30149;SDS011;16962;48.646;9.026;2023-04-03T22:41:06;7.53;;;3.25;;
30149;SDS011;16962;48.646;9.026;2023-04-03T22:43:55;5.25;;;2.78;;
30149;SDS011;16962;48.646;9.026;2023-04-03T22:46:55;6.38;;;3.25;;
30149;SDS011;16962;48.646;9.026;2023-04-03T22:49:43;9.82;;;2.90;;
30149;SDS011;16962;48.646;9.026;2023-04-03T22:52:32;7.55;;;3.40;;
30149;SDS011;16962;48.646;9.026;2023-04-03T22:55:20;7.28;;;2.80;;
30149;SDS011;16962;48.646;9.026;2023-04-03T22:58:13;6.45;;;3.38;;
30149;SDS011;16962;48.646;9.026;2023-04-03T23:01:08;3.92;;;3.08;;
30149;SDS011;16962;48.646;9.026;2023-04-03T23:03:56;5.32;;;3.03;;
30149;SDS011;16962;48.646;9.026;2023-04-03T23:06:47;6.65;;;3.08;;
30149;SDS011;16962;48.646;9.026;2023-04-03T23:09:34;6.20;;;3.08;;
30149;SDS011;16962;48.646;9.026;2023-04-03T23:12:22;9.85;;;3.55;;
30149;SDS011;16962;48.646;9.026;2023-04-03T23:15:09;4.82;;;3.08;;
30149;SDS011;16962;48.646;9.026;2023-04-03T23:17:57;9.52;;;3.65;;
30149;SDS011;16962;48.646;9.026;2023-04-03T23:20:44;7.05;;;2.90;;
30149;SDS011;16962;48.646;9.026;2023-04-03T23:23:32;6.45;;;3.30;;
30149;SDS011;16962;48.646;9.026;2023-04-03T23:26:21;7.70;;;3.22;;
30149;SDS011;16962;48.646;9.026;2023-04-03T23:29:09;5.00;;;3.40;;
30149;SDS011;16962;48.646;9.026;2023-04-03T23:31:57;9.48;;;3.20;;
30149;SDS011;16962;48.646;9.026;2023-04-03T23:34:44;5.30;;;3.10;;